createdAt,value
2022-08-18T00:01:40.840Z,96881.31
2022-08-18T00:05:45.622Z,96876.50
2022-08-18T00:09:51.068Z,96878.66
2022-08-18T00:13:54.760Z,96871.47
2022-08-18T00:17:57.798Z,96863.97
2022-08-18T00:22:01.619Z,96864.50
2022-08-18T00:26:06.885Z,96859.44
2022-08-18T00:30:13.438Z,96857.06
2022-08-18T00:34:17.039Z,96865.84
2022-08-18T00:38:24.897Z,96873.88
2022-08-18T00:42:31.963Z,96866.13
2022-08-18T00:46:39.703Z,96877.88
2022-08-18T00:50:48.530Z,96870.13
2022-08-18T00:54:56.006Z,96879.44
2022-08-18T00:59:04.402Z,96878.91
2022-08-18T01:03:14.426Z,96880.78
2022-08-18T01:07:22.292Z,96890.09
2022-08-18T01:11:26.141Z,96880.50
2022-08-18T01:15:30.853Z,96887.44
2022-08-18T01:19:52.438Z,96882.88
2022-08-18T01:23:59.145Z,96878.91
2022-08-18T01:28:03.526Z,96891.16
2022-08-18T01:32:07.568Z,96893.00
2022-08-18T01:36:17.092Z,96892.16
2022-08-18T01:41:11.076Z,96890.56
2022-08-18T01:44:51.384Z,96898.25
2022-08-18T01:48:55.343Z,96907.78
2022-08-18T01:52:59.132Z,96904.28
2022-08-18T01:57:03.991Z,96902.41
2022-08-18T02:01:08.093Z,96904.22
2022-08-18T02:05:15.660Z,96906.03
2022-08-18T02:09:23.706Z,96909.66
2022-08-18T02:13:29.889Z,96900.28
2022-08-18T02:17:39.294Z,96912.44
2022-08-18T02:21:42.434Z,96907.00
2022-08-18T02:25:46.130Z,96917.56
2022-08-18T02:29:51.244Z,96955.75
2022-08-18T02:33:54.903Z,96954.63
2022-08-18T02:38:00.200Z,96964.09
2022-08-18T02:42:03.770Z,96955.47
2022-08-18T02:46:11.140Z,96951.13
2022-08-18T02:50:16.909Z,96949.47
2022-08-18T02:54:21.227Z,96949.66
2022-08-18T02:58:24.850Z,96944.78
2022-08-18T03:02:29.892Z,96944.50
2022-08-18T03:06:33.140Z,96959.88
2022-08-18T03:10:36.783Z,96942.34
2022-08-18T03:14:41.767Z,96955.63
2022-08-18T03:18:48.512Z,96956.72
2022-08-18T03:22:51.737Z,96967.41
2022-08-18T03:26:58.756Z,96978.91
2022-08-18T03:31:02.275Z,96990.94
2022-08-18T03:35:08.828Z,96996.34
2022-08-18T03:39:14.785Z,97011.03
2022-08-18T03:43:23.691Z,97025.16
2022-08-18T03:47:42.678Z,97040.09
2022-08-18T03:51:49.300Z,97029.53
2022-08-18T03:55:52.633Z,97030.34
2022-08-18T03:59:56.834Z,97032.75
2022-08-18T04:04:04.640Z,97043.88
2022-08-18T04:08:09.655Z,97045.47
2022-08-18T04:12:17.653Z,97051.03
2022-08-18T04:16:21.296Z,97064.00
2022-08-18T04:20:25.050Z,97070.91
2022-08-18T04:24:31.991Z,97080.47
2022-08-18T04:28:37.261Z,97087.88
2022-08-18T04:32:40.876Z,97089.47
2022-08-18T04:36:45.415Z,97102.22
2022-08-18T04:40:50.824Z,97102.50
2022-08-18T04:44:54.633Z,97113.38
2022-08-18T04:48:59.893Z,97104.34
2022-08-18T04:53:23.221Z,97113.38
2022-08-18T04:57:32.973Z,97120.56
2022-08-18T05:01:41.352Z,97117.91
2022-08-18T05:05:45.171Z,97110.97
2022-08-18T05:09:49.022Z,97101.97
2022-08-18T05:13:55.876Z,97095.34
2022-08-18T05:17:59.736Z,97106.78
2022-08-18T05:22:05.175Z,97104.50
2022-08-18T05:26:10.707Z,97108.28
2022-08-18T05:30:16.139Z,97089.47
2022-08-18T05:34:21.870Z,97097.78
2022-08-18T05:38:39.998Z,97098.63
2022-08-18T05:42:44.992Z,97090.72
2022-08-18T05:46:53.521Z,97100.09
2022-08-18T05:51:01.541Z,97120.91
2022-08-18T05:55:26.825Z,97125.22
2022-08-18T05:59:35.188Z,97139.91
2022-08-18T06:03:54.061Z,97166.09
2022-08-18T06:08:02.008Z,97173.38
2022-08-18T06:12:14.781Z,97173.72
2022-08-18T06:16:30.123Z,97182.09
2022-08-18T06:20:45.211Z,97188.88
2022-08-18T06:24:57.618Z,97204.69
2022-08-18T06:29:13.112Z,97201.03
2022-08-18T06:33:40.694Z,97207.50
2022-08-18T06:38:11.199Z,97215.03
2022-08-18T06:42:17.599Z,97217.75
2022-08-18T06:46:28.394Z,97201.59
2022-08-18T06:50:35.794Z,97204.63
2022-08-18T06:54:49.396Z,97206.28
2022-08-18T06:58:56.027Z,97192.22
2022-08-18T07:03:07.519Z,97201.31
2022-08-18T07:07:20.702Z,97204.81
2022-08-18T07:11:28.398Z,97197.78
2022-08-18T07:15:32.955Z,97195.00
2022-08-18T07:19:36.690Z,97202.59
2022-08-18T07:23:41.922Z,97206.22
2022-08-18T07:27:49.288Z,97203.88
2022-08-18T07:31:56.298Z,97205.31
2022-08-18T07:36:07.222Z,97203.13
2022-08-18T07:40:22.290Z,97211.25
2022-08-18T07:44:32.157Z,97210.34
2022-08-18T07:48:39.938Z,97202.59
2022-08-18T07:52:52.667Z,97192.13
2022-08-18T07:57:06.176Z,97180.03
2022-08-18T08:01:29.263Z,97153.44
2022-08-18T08:05:50.249Z,97123.09
2022-08-18T08:10:03.324Z,97090.53
2022-08-18T08:14:21.737Z,97064.25
2022-08-18T08:18:36.045Z,97066.53
2022-08-18T08:22:45.745Z,97105.66
2022-08-18T08:26:58.590Z,97122.81
2022-08-18T08:31:35.217Z,97140.41
2022-08-18T08:35:50.872Z,97140.75
2022-08-18T08:40:01.022Z,97134.34
2022-08-18T08:44:12.302Z,97134.50
2022-08-18T08:48:22.739Z,97134.28
2022-08-18T08:52:33.438Z,97112.16
2022-08-18T08:56:42.873Z,97098.72
2022-08-18T09:00:49.616Z,97074.53
2022-08-18T09:05:08.980Z,97052.81
2022-08-18T09:09:29.712Z,97040.75
2022-08-18T09:14:14.489Z,97028.97
2022-08-18T09:18:38.332Z,97012.09
2022-08-18T09:22:49.809Z,96998.97
2022-08-18T09:27:15.361Z,96998.13
2022-08-18T09:31:21.051Z,97017.34
2022-08-18T09:36:00.153Z,97034.38
2022-08-18T09:41:00.999Z,97033.78
2022-08-18T09:45:10.539Z,97017.78
2022-08-18T09:49:51.366Z,97011.38
2022-08-18T09:54:21.397Z,96986.03
2022-08-18T09:58:57.629Z,96989.53
2022-08-18T10:03:25.731Z,96988.47
2022-08-18T10:08:07.127Z,96978.56
2022-08-18T10:12:27.519Z,96976.13
2022-08-18T10:21:14.851Z,96985.38
2022-08-18T10:25:35.475Z,96990.56
2022-08-18T10:29:54.596Z,96994.75
2022-08-18T10:34:16.007Z,97002.78
2022-08-18T10:43:46.294Z,97000.72
2022-08-18T10:47:34.152Z,97003.31
2022-08-18T10:51:59.436Z,97006.94
2022-08-18T10:56:12.627Z,97011.78
2022-08-18T11:00:21.670Z,97016.41
2022-08-18T11:04:39.350Z,97009.31
2022-08-18T11:08:48.347Z,97002.75
2022-08-18T11:13:11.038Z,96989.28
2022-08-18T11:17:24.496Z,96983.97
2022-08-18T11:26:18.299Z,96984.50
2022-08-18T11:30:31.106Z,96992.72
2022-08-18T11:34:41.290Z,96973.56
2022-08-18T11:38:56.402Z,96982.44
2022-08-18T11:43:06.608Z,96975.59
2022-08-18T11:47:17.095Z,96983.63
2022-08-18T11:51:26.986Z,96978.31
2022-08-18T11:55:33.930Z,96970.47
2022-08-18T11:59:54.997Z,96963.72
2022-08-18T12:04:15.648Z,96950.09
2022-08-18T12:08:51.007Z,96936.28
2022-08-18T12:12:52.897Z,96920.31
2022-08-18T12:16:59.724Z,96905.63
2022-08-18T12:21:06.943Z,96884.75
2022-08-18T12:25:13.159Z,96879.09
2022-08-18T12:29:19.065Z,96892.75
2022-08-18T12:33:25.372Z,96905.81
2022-08-18T12:42:08.739Z,96927.22
2022-08-18T12:46:14.028Z,96901.34
2022-08-18T12:50:19.005Z,96887.09
2022-08-18T12:54:25.386Z,96880.31
2022-08-18T12:58:30.184Z,96858.25
2022-08-18T13:02:33.786Z,96859.59
2022-08-18T13:06:54.222Z,96879.69
2022-08-18T13:11:15.123Z,96877.69
2022-08-18T13:15:26.183Z,96879.00
2022-08-18T13:19:35.237Z,96884.44
2022-08-18T13:23:40.762Z,96890.41
2022-08-18T13:27:46.592Z,96894.84
2022-08-18T13:31:58.008Z,96879.81
2022-08-18T13:36:02.375Z,96867.56
2022-08-18T13:40:07.167Z,96863.75
2022-08-18T13:44:18.956Z,96863.31
2022-08-18T13:48:30.179Z,96877.50
2022-08-18T13:52:35.569Z,96888.41
2022-08-18T13:56:42.810Z,96895.13
2022-08-18T14:01:15.922Z,96886.94
2022-08-18T14:05:50.735Z,96868.38
2022-08-18T14:09:46.378Z,96884.91
2022-08-18T14:13:50.788Z,96899.41
2022-08-18T14:17:56.534Z,96909.31
2022-08-18T14:22:19.886Z,96912.44
2022-08-18T14:26:40.560Z,96905.91
2022-08-18T14:30:54.136Z,96892.81
2022-08-18T14:35:34.281Z,96924.44
2022-08-18T14:39:28.053Z,96970.53
2022-08-18T14:44:12.525Z,96980.94
2022-08-18T14:47:55.660Z,97040.31
2022-08-18T14:52:05.074Z,96976.81
2022-08-18T14:56:16.043Z,96863.63
2022-08-18T15:00:53.704Z,96724.59
2022-08-18T15:04:58.106Z,96827.09
2022-08-18T15:09:03.015Z,96809.63
2022-08-18T15:13:06.796Z,96827.41
2022-08-18T15:17:13.213Z,96808.63
2022-08-18T15:21:38.777Z,96808.59
2022-08-18T15:25:46.506Z,96792.91
2022-08-18T15:29:54.745Z,96796.09
2022-08-18T15:33:58.641Z,96782.78
2022-08-18T15:38:04.971Z,96780.94
2022-08-18T15:42:13.831Z,96801.16
2022-08-18T15:46:17.057Z,96809.66
2022-08-18T15:50:25.332Z,96791.59
2022-08-18T15:54:28.907Z,96772.09
2022-08-18T15:58:34.489Z,96772.09
2022-08-18T16:02:39.043Z,96777.09
2022-08-18T16:06:45.330Z,96791.09
2022-08-18T16:10:49.120Z,96788.97
2022-08-18T16:14:53.739Z,96771.00
2022-08-18T16:18:57.725Z,96765.06
2022-08-18T16:23:01.290Z,96758.13
2022-08-18T16:27:06.706Z,96754.75
2022-08-18T16:31:11.582Z,96753.06
2022-08-18T16:35:15.856Z,96759.44
2022-08-18T16:39:20.304Z,96750.56
2022-08-18T16:43:23.642Z,96750.81
2022-08-18T16:47:29.207Z,96760.91
2022-08-18T16:51:32.554Z,96742.69
2022-08-18T16:55:35.848Z,96740.69
2022-08-18T16:59:57.472Z,96721.25
2022-08-18T17:04:13.799Z,96756.53
2022-08-18T17:08:25.409Z,96737.50
2022-08-18T17:12:29.711Z,96757.16
2022-08-18T17:16:32.993Z,96747.63
2022-08-18T17:20:38.032Z,96775.72
2022-08-18T17:24:49.363Z,96754.44
2022-08-18T17:28:59.744Z,96749.19
2022-08-18T17:33:06.735Z,96762.09
2022-08-18T17:37:15.538Z,96752.09
2022-08-18T17:41:20.795Z,96755.44
2022-08-18T17:45:24.089Z,96751.28
2022-08-18T17:49:54.207Z,96751.63
2022-08-18T17:54:24.606Z,96761.06
2022-08-18T17:58:34.144Z,96759.81
2022-08-18T18:02:37.569Z,96779.28
2022-08-18T18:06:45.357Z,96764.69
2022-08-18T18:11:07.869Z,96773.47
2022-08-18T18:15:13.646Z,96774.78
2022-08-18T18:19:21.982Z,96780.31
2022-08-18T18:23:30.168Z,96776.81
2022-08-18T18:27:40.802Z,96766.88
2022-08-18T18:31:46.925Z,96770.00
2022-08-18T18:35:53.997Z,96775.50
2022-08-18T18:40:00.607Z,96791.09
2022-08-18T18:44:10.513Z,96787.81
2022-08-18T18:48:38.643Z,96797.03
2022-08-18T18:52:58.749Z,96791.91
2022-08-18T18:57:03.802Z,96794.75
2022-08-18T19:01:19.451Z,96804.47
2022-08-18T19:05:31.006Z,96794.84
2022-08-18T19:09:43.748Z,96803.50
2022-08-18T19:13:56.957Z,96804.19
2022-08-18T19:18:05.079Z,96806.25
2022-08-18T19:22:14.113Z,96816.25
2022-08-18T19:26:27.563Z,96823.09
2022-08-18T19:30:34.697Z,96837.34
2022-08-18T19:34:51.122Z,96836.75
2022-08-18T19:39:03.733Z,96835.09
2022-08-18T19:43:15.818Z,96824.38
2022-08-18T19:47:28.262Z,96833.25
2022-08-18T19:51:35.358Z,96838.16
2022-08-18T19:55:56.318Z,96850.94
2022-08-18T20:00:18.479Z,96850.97
2022-08-18T20:04:36.191Z,96852.13
2022-08-18T20:09:10.594Z,96855.34
2022-08-18T20:13:33.213Z,96875.00
2022-08-18T20:18:06.346Z,96878.03
2022-08-18T20:22:15.878Z,96879.53
2022-08-18T20:26:44.020Z,96892.59
2022-08-18T20:31:02.734Z,96898.53
2022-08-18T20:39:54.642Z,96900.09
2022-08-18T20:44:06.163Z,96900.56
2022-08-18T20:48:27.854Z,96908.19
2022-08-18T20:52:43.233Z,96905.19
2022-08-18T20:56:50.798Z,96912.00
2022-08-18T21:00:58.936Z,96909.03
2022-08-18T21:05:02.263Z,96914.00
2022-08-18T21:09:06.008Z,96923.16
2022-08-18T21:13:09.175Z,96939.25
2022-08-18T21:17:16.708Z,96952.47
2022-08-18T21:21:26.908Z,96944.56
2022-08-18T21:25:32.698Z,96951.47
2022-08-18T21:29:47.609Z,96944.31
2022-08-18T21:33:56.777Z,96954.88
2022-08-18T21:38:02.062Z,96965.94
2022-08-18T21:42:05.773Z,97012.97
2022-08-18T21:46:10.506Z,97028.38
2022-08-18T21:50:23.287Z,97040.88
2022-08-18T21:54:31.224Z,97025.25
2022-08-18T21:58:41.255Z,97033.41
2022-08-18T22:02:44.741Z,97009.84
2022-08-18T22:06:53.406Z,97006.41
2022-08-18T22:12:01.014Z,97025.47
2022-08-18T22:16:24.804Z,97047.41
2022-08-18T22:20:47.146Z,97064.66
2022-08-18T22:24:56.060Z,97071.09
2022-08-18T22:29:03.454Z,97062.13
2022-08-18T22:33:06.837Z,97054.34
2022-08-18T22:37:16.198Z,97040.19
2022-08-18T22:41:26.115Z,97029.72
2022-08-18T22:45:30.130Z,96998.66
2022-08-18T22:49:56.164Z,96946.56
2022-08-18T22:53:59.499Z,96908.38
2022-08-18T22:58:04.856Z,96915.09
2022-08-18T23:02:11.404Z,96895.41
2022-08-18T23:06:16.127Z,96884.41
2022-08-18T23:10:20.208Z,96918.56
2022-08-18T23:14:25.700Z,96945.44
2022-08-18T23:18:29.556Z,96937.59
2022-08-18T23:22:33.676Z,96966.28
2022-08-18T23:26:37.531Z,96966.03
2022-08-18T23:30:44.683Z,96963.94
2022-08-18T23:34:48.643Z,96954.97
2022-08-18T23:38:55.571Z,96947.56
2022-08-18T23:42:59.072Z,96952.41
2022-08-18T23:47:04.299Z,96961.16
2022-08-18T23:51:08.781Z,96961.97
2022-08-18T23:55:14.886Z,96989.44
2022-08-18T23:59:20.492Z,97004.78
